Time;durP1;ratioP1;P1;durP2;ratioP2;P2;SDS_P1;SDS_P2;PMS_P1;PMS_P2;Temp;Humidity;BMP_temperature;BMP_pressure;BME280_temperature;BME280_humidity;BME280_pressure;Samples;Min_cycle;Max_cycle;Signal;HPM_P1;HPM_P2
2023/07/09 00:02:16;;;;;;;9.77;7.85;;;;;;;22.85;54.63;99146.00;5033673;28;20021;-79
2023/07/09 00:04:42;;;;;;;12.95;8.55;;;;;;;22.46;57.59;99151.56;5033141;28;20037;-79
2023/07/09 00:07:16;;;;;;;16.88;7.63;;;;;;;21.64;59.25;99155.00;5034558;28;20053;-79
2023/07/09 00:09:41;;;;;;;8.23;7.43;;;;;;;21.42;61.15;99168.63;5043036;28;20032;-79
2023/07/09 00:12:12;;;;;;;9.82;6.80;;;;;;;22.19;56.65;99156.16;5035572;28;20037;-79
2023/07/09 00:14:38;;;;;;;9.23;7.20;;;;;;;22.57;55.50;99150.94;5033162;28;20363;-80
2023/07/09 00:17:09;;;;;;;12.07;7.38;;;;;;;22.66;55.27;99156.41;5033031;28;20038;-80
2023/07/09 00:19:35;;;;;;;7.82;6.72;;;;;;;22.78;54.89;99157.38;5032613;28;20418;-79
2023/07/09 00:22:00;;;;;;;8.80;6.57;;;;;;;22.76;55.26;99158.84;5030367;28;20041;-79
2023/07/09 00:24:26;;;;;;;7.60;6.82;;;;;;;22.68;55.17;99160.44;5027592;28;20522;-79
2023/07/09 00:26:52;;;;;;;12.10;7.95;;;;;;;22.04;57.44;99164.75;5033127;28;20045;-80
2023/07/09 00:29:18;;;;;;;10.43;7.55;;;;;;;21.99;57.29;99161.41;5030296;28;20409;-80
2023/07/09 00:31:43;;;;;;;7.68;6.72;;;;;;;22.31;55.69;99158.28;5034028;28;20025;-80
2023/07/09 00:34:13;;;;;;;7.18;6.18;;;;;;;22.54;55.37;99151.56;5033144;28;20034;-80
2023/07/09 00:36:38;;;;;;;9.18;7.53;;;;;;;22.60;55.44;99169.41;5034335;28;20048;-79
2023/07/09 00:39:07;;;;;;;11.00;7.53;;;;;;;22.56;55.68;99165.69;5034445;28;20029;-80
2023/07/09 00:41:37;;;;;;;12.57;7.10;;;;;;;22.52;55.57;99161.19;5034816;28;20029;-80
2023/07/09 00:44:33;;;;;;;8.88;6.70;;;;;;;22.46;55.65;99170.59;5033509;28;20136;-80
2023/07/09 00:47:01;;;;;;;7.38;6.60;;;;;;;22.42;55.76;99175.09;5035600;28;20111;-79
2023/07/09 00:49:27;;;;;;;9.05;6.93;;;;;;;22.42;55.50;99170.47;5033257;28;20044;-79
2023/07/09 00:51:53;;;;;;;9.25;7.25;;;;;;;22.37;55.82;99160.53;5032231;28;20017;-78
2023/07/09 00:54:30;;;;;;;8.65;6.95;;;;;;;22.32;55.84;99165.34;5029365;28;20801;-79
2023/07/09 00:56:59;;;;;;;8.38;7.15;;;;;;;22.22;55.97;99152.81;5032323;28;20029;-79
2023/07/09 00:59:28;;;;;;;10.18;7.20;;;;;;;22.28;55.97;99158.91;5031092;28;20025;-79
2023/07/09 01:01:55;;;;;;;7.80;6.80;;;;;;;22.16;55.80;99159.53;5029123;28;20030;-79
2023/07/09 01:04:23;;;;;;;10.52;7.53;;;;;;;22.31;55.97;99161.81;5033123;28;20480;-79
2023/07/09 01:06:51;;;;;;;9.32;7.22;;;;;;;22.16;56.20;99169.59;5032705;28;20048;-80
2023/07/09 01:09:18;;;;;;;9.82;7.55;;;;;;;21.67;59.12;99165.22;5033416;28;20376;-79
2023/07/09 01:11:43;;;;;;;9.73;7.55;;;;;;;21.77;57.23;99158.72;5033189;28;20048;-80
2023/07/09 01:14:13;;;;;;;9.18;6.55;;;;;;;21.99;56.48;99167.66;5030593;28;20355;-79
2023/07/09 01:17:01;;;;;;;9.57;6.95;;;;;;;21.97;56.62;99152.75;5032860;28;20038;-80
2023/07/09 01:19:29;;;;;;;9.50;6.38;;;;;;;22.06;56.02;99162.53;5027996;28;20450;-80
2023/07/09 01:21:58;;;;;;;8.80;6.90;;;;;;;21.63;57.21;99164.25;5033099;28;20033;-80
2023/07/09 01:24:46;;;;;;;10.63;7.88;;;;;;;21.46;58.59;99166.91;5031815;28;20025;-80
2023/07/09 01:27:11;;;;;;;8.88;7.88;;;;;;;20.84;60.40;99161.34;5033285;28;20028;-80
2023/07/09 01:29:37;;;;;;;9.68;7.50;;;;;;;21.47;57.75;99163.84;5032605;28;20044;-80
2023/07/09 01:32:03;;;;;;;9.50;7.40;;;;;;;21.54;57.54;99166.13;5032373;28;20025;-79
2023/07/09 01:34:30;;;;;;;10.50;6.85;;;;;;;21.81;56.89;99160.50;5031141;28;20056;-79
2023/07/09 01:36:56;;;;;;;8.57;7.32;;;;;;;21.87;56.66;99161.19;5028469;28;20041;-80
2023/07/09 01:39:21;;;;;;;10.35;6.15;;;;;;;21.94;56.49;99167.78;5030240;28;20458;-79
2023/07/09 01:41:47;;;;;;;9.60;7.35;;;;;;;21.85;56.72;99172.38;5031496;28;20042;-80
2023/07/09 01:44:13;;;;;;;9.52;6.93;;;;;;;21.78;56.89;99173.91;5032308;28;20025;-80
2023/07/09 01:46:39;;;;;;;7.72;6.90;;;;;;;21.80;56.80;99169.00;5031356;28;20119;-79
2023/07/09 01:49:07;;;;;;;8.63;7.55;;;;;;;21.76;56.90;99165.28;5035384;28;20037;-79
2023/07/09 01:51:33;;;;;;;11.07;8.02;;;;;;;21.68;56.90;99166.84;5030634;28;20032;-80
2023/07/09 01:53:59;;;;;;;11.55;7.28;;;;;;;21.72;56.80;99167.81;5027699;28;20133;-80
2023/07/09 01:56:25;;;;;;;8.57;6.63;;;;;;;21.54;57.06;99157.97;5025712;28;20036;-80
2023/07/09 01:58:50;;;;;;;7.35;6.65;;;;;;;21.72;56.78;99165.09;5045161;28;20033;-80
2023/07/09 02:01:16;;;;;;;10.18;7.60;;;;;;;21.56;57.01;99164.72;5031447;28;20044;-79
2023/07/09 02:03:42;;;;;;;8.15;7.10;;;;;;;21.67;56.99;99162.53;5035762;28;20025;-79
2023/07/09 02:06:10;;;;;;;9.18;7.55;;;;;;;21.57;57.17;99166.31;5035005;28;20390;-78
2023/07/09 02:08:36;;;;;;;8.48;6.82;;;;;;;21.45;57.20;99157.13;5035699;28;20034;-79
2023/07/09 02:11:02;;;;;;;10.73;8.45;;;;;;;20.88;60.22;99164.28;5047333;28;20517;-79
2023/07/09 02:13:27;;;;;;;8.75;7.65;;;;;;;20.80;59.57;99160.38;5037240;28;20104;-79
2023/07/09 02:15:52;;;;;;;9.43;7.35;;;;;;;20.68;60.68;99162.84;5035462;28;20655;-78
2023/07/09 02:18:18;;;;;;;8.68;7.40;;;;;;;20.83;59.16;99169.81;5039607;28;20032;-79
2023/07/09 02:20:46;;;;;;;10.45;7.93;;;;;;;20.61;59.96;99154.31;5045200;28;20029;-79
2023/07/09 02:23:11;;;;;;;13.32;7.53;;;;;;;21.21;58.00;99160.19;5028684;28;20108;-79
2023/07/09 02:25:37;;;;;;;12.15;7.03;;;;;;;21.38;57.73;99159.50;5045293;28;20456;-79
2023/07/09 02:28:03;;;;;;;9.23;6.80;;;;;;;21.33;57.46;99157.72;5033420;28;20103;-80
2023/07/09 02:30:28;;;;;;;8.05;6.93;;;;;;;21.33;57.98;99160.44;5054304;28;20041;-79
2023/07/09 02:32:54;;;;;;;10.40;7.88;;;;;;;21.17;57.81;99155.69;5038545;28;20056;-80
2023/07/09 02:35:20;;;;;;;8.88;7.70;;;;;;;20.71;59.26;99154.06;5037665;28;20026;-79
2023/07/09 02:37:46;;;;;;;11.80;7.55;;;;;;;21.17;58.21;99155.69;5034307;28;20128;-79
2023/07/09 02:40:12;;;;;;;9.57;7.47;;;;;;;21.21;57.74;99151.28;5034664;28;20082;-80
2023/07/09 02:42:38;;;;;;;8.70;7.47;;;;;;;21.15;58.10;99155.19;5025729;28;20430;-79
2023/07/09 02:45:04;;;;;;;10.38;8.07;;;;;;;21.09;58.08;99156.44;5035769;28;20033;-79
2023/07/09 02:47:29;;;;;;;8.90;7.72;;;;;;;21.08;58.04;99152.16;5039015;28;20033;-79
2023/07/09 02:49:55;;;;;;;11.32;7.93;;;;;;;21.14;58.01;99159.03;5038754;28;20052;-79
2023/07/09 02:52:20;;;;;;;9.10;7.40;;;;;;;21.09;58.15;99159.16;5034716;28;20025;-79
2023/07/09 02:54:45;;;;;;;11.32;7.75;;;;;;;21.00;58.47;99147.41;5031455;28;20039;-79
2023/07/09 02:57:11;;;;;;;8.82;7.35;;;;;;;21.05;58.58;99158.19;5049277;28;20032;-79
2023/07/09 02:59:37;;;;;;;8.50;7.45;;;;;;;20.72;58.48;99150.25;5036327;28;20467;-79
2023/07/09 03:02:03;;;;;;;13.77;8.23;;;;;;;20.64;59.13;99161.81;5034935;28;20518;-79
2023/07/09 03:04:28;;;;;;;9.82;7.28;;;;;;;20.92;58.39;99147.03;5032193;28;20503;-80
2023/07/09 03:06:54;;;;;;;9.15;7.63;;;;;;;20.82;58.48;99154.63;5034859;28;20029;-81
2023/07/09 03:09:20;;;;;;;10.70;8.18;;;;;;;20.93;58.75;99155.97;5048168;28;20386;-80
2023/07/09 03:11:45;;;;;;;9.63;7.57;;;;;;;20.92;58.39;99157.13;5034134;28;20375;-80
2023/07/09 03:14:10;;;;;;;10.75;7.97;;;;;;;20.93;58.33;99161.41;5030311;28;20041;-79
2023/07/09 03:16:36;;;;;;;10.60;7.78;;;;;;;20.81;58.80;99159.28;5031046;28;20100;-78
2023/07/09 03:19:04;;;;;;;13.40;8.18;;;;;;;20.88;58.79;99162.34;5032047;28;20515;-79
2023/07/09 03:21:29;;;;;;;10.18;7.55;;;;;;;20.91;58.67;99164.44;5027488;28;20418;-79
2023/07/09 03:23:56;;;;;;;8.73;7.82;;;;;;;20.98;58.37;99163.19;5029972;28;20040;-79
2023/07/09 03:26:21;;;;;;;8.15;7.30;;;;;;;20.80;58.49;99162.28;5036854;28;20021;-79
2023/07/09 03:28:47;;;;;;;9.95;7.75;;;;;;;20.81;58.71;99172.84;5024666;28;20482;-79
2023/07/09 03:31:12;;;;;;;10.38;7.65;;;;;;;20.89;58.60;99172.09;5039600;28;20514;-79
2023/07/09 03:33:38;;;;;;;12.20;8.00;;;;;;;20.54;59.30;99167.47;5032407;28;20025;-79
2023/07/09 03:36:04;;;;;;;10.20;7.60;;;;;;;20.48;59.43;99182.28;5034213;28;20033;-79
2023/07/09 03:38:30;;;;;;;9.63;7.28;;;;;;;20.10;61.03;99184.38;5025069;28;20111;-79
2023/07/09 03:40:56;;;;;;;10.73;8.75;;;;;;;19.50;64.81;99182.84;5030815;28;20029;-79
2023/07/09 03:43:22;;;;;;;11.90;8.30;;;;;;;20.24;60.64;99189.84;5033222;28;20512;-79
2023/07/09 03:45:48;;;;;;;13.93;7.60;;;;;;;20.10;60.81;99195.22;5042417;28;20104;-79
2023/07/09 03:48:15;;;;;;;9.85;8.38;;;;;;;19.69;63.43;99193.59;5034890;28;20100;-79
2023/07/09 03:50:43;;;;;;;10.00;8.13;;;;;;;19.94;61.93;99176.88;5031071;28;20025;-79
2023/07/09 03:53:08;;;;;;;9.32;8.05;;;;;;;20.40;59.78;99185.69;5031447;28;20029;-79
2023/07/09 03:55:34;;;;;;;9.93;8.07;;;;;;;20.73;59.01;99195.25;5025301;28;20029;-79
2023/07/09 03:57:59;;;;;;;9.23;7.82;;;;;;;20.76;59.21;99191.13;5025666;28;20037;-79
2023/07/09 04:00:25;;;;;;;10.70;7.55;;;;;;;20.67;59.49;99187.53;5031344;28;20043;-80
2023/07/09 04:02:52;;;;;;;16.27;7.95;;;;;;;20.35;59.97;99196.66;5033935;28;21908;-80
2023/07/09 04:05:17;;;;;;;8.63;7.57;;;;;;;19.62;65.65;99196.72;5029273;28;20029;-80
2023/07/09 04:07:44;;;;;;;12.13;8.68;;;;;;;19.29;66.66;99193.19;5012509;28;20128;-80
2023/07/09 04:10:10;;;;;;;10.75;8.80;;;;;;;19.06;67.94;99201.44;5028046;28;20044;-80
2023/07/09 04:12:36;;;;;;;10.27;7.60;;;;;;;19.07;66.71;99200.31;5031807;28;20380;-80
2023/07/09 04:15:03;;;;;;;11.60;7.68;;;;;;;19.18;68.14;99208.00;5027823;28;20873;-80
2023/07/09 04:17:29;;;;;;;9.32;7.47;;;;;;;19.58;65.16;99208.44;5016736;28;20033;-80
2023/07/09 04:19:54;;;;;;;10.07;8.23;;;;;;;19.32;67.96;99198.03;5024062;28;20048;-80
2023/07/09 04:22:19;;;;;;;8.63;7.57;;;;;;;19.37;67.29;99208.78;5033027;28;20033;-80
2023/07/09 04:24:45;;;;;;;14.32;8.05;;;;;;;19.41;69.95;99211.72;5031190;28;20108;-80
2023/07/09 04:27:13;;;;;;;11.20;8.63;;;;;;;19.42;68.29;99210.59;5030846;28;20036;-80
2023/07/09 04:29:39;;;;;;;13.38;8.18;;;;;;;19.37;68.93;99203.38;5035071;28;20446;-81
2023/07/09 04:32:06;;;;;;;12.88;9.27;;;;;;;19.56;68.84;99206.03;5038744;28;20037;-81
2023/07/09 04:34:31;;;;;;;9.50;7.72;;;;;;;19.53;68.93;99201.19;5039643;28;20029;-80
2023/07/09 04:36:57;;;;;;;11.88;7.68;;;;;;;19.85;68.53;99211.19;5030862;28;20123;-81
2023/07/09 04:39:22;;;;;;;11.60;7.07;;;;;;;20.31;62.65;99206.50;5039418;28;20048;-81
2023/07/09 04:41:48;;;;;;;12.27;8.55;;;;;;;20.10;68.54;99214.19;5045933;28;20128;-82
2023/07/09 04:44:13;;;;;;;17.67;9.35;;;;;;;19.69;69.51;99194.41;5035012;28;20048;-80
2023/07/09 04:46:39;;;;;;;9.55;8.25;;;;;;;19.60;70.20;99208.94;5029194;28;20090;-80
2023/07/09 04:49:04;;;;;;;12.15;8.35;;;;;;;19.53;70.61;99212.03;5033248;28;20036;-80
2023/07/09 04:51:30;;;;;;;11.80;8.80;;;;;;;19.52;71.07;99210.44;5035260;28;20818;-80
2023/07/09 04:53:55;;;;;;;16.35;9.52;;;;;;;19.48;70.41;99222.16;5030017;28;20029;-80
2023/07/09 04:56:20;;;;;;;15.43;10.07;;;;;;;19.59;70.77;99220.88;5032787;28;20044;-80
2023/07/09 04:58:46;;;;;;;16.13;10.02;;;;;;;19.50;70.25;99219.97;5032858;28;20167;-80
2023/07/09 05:01:11;;;;;;;10.60;9.50;;;;;;;19.57;70.63;99221.16;5033690;28;20052;-80
2023/07/09 05:03:38;;;;;;;12.25;9.98;;;;;;;19.56;72.04;99219.56;5033424;28;20064;-80
2023/07/09 05:06:04;;;;;;;14.65;9.93;;;;;;;19.41;70.58;99207.09;5036301;28;20051;-80
2023/07/09 05:08:30;;;;;;;12.88;11.23;;;;;;;19.58;70.02;99224.69;5034332;28;20029;-79
2023/07/09 05:10:57;;;;;;;12.07;10.13;;;;;;;19.64;70.61;99216.16;5030280;28;20038;-80
2023/07/09 05:13:23;;;;;;;14.77;10.55;;;;;;;19.80;71.20;99222.13;5033135;28;20041;-80
2023/07/09 05:15:50;;;;;;;12.80;10.18;;;;;;;19.88;71.09;99205.16;5034546;28;20033;-80
2023/07/09 05:18:16;;;;;;;11.40;9.95;;;;;;;19.79;71.32;99206.97;5033896;28;20540;-80
2023/07/09 05:20:42;;;;;;;13.88;10.75;;;;;;;20.03;69.88;99218.41;5030726;28;20057;-80
2023/07/09 05:23:09;;;;;;;14.82;11.10;;;;;;;20.09;70.07;99219.94;5031526;28;20029;-80
2023/07/09 05:25:34;;;;;;;10.88;8.80;;;;;;;20.29;68.54;99214.09;5033115;28;20030;-80
2023/07/09 05:28:00;;;;;;;14.98;10.07;;;;;;;20.41;70.13;99219.84;5036459;28;20033;-80
2023/07/09 05:30:26;;;;;;;13.23;9.68;;;;;;;20.48;68.85;99231.09;5035217;28;20028;-80
2023/07/09 05:32:53;;;;;;;16.70;10.30;;;;;;;20.20;69.93;99229.47;5025387;28;20034;-81
2023/07/09 05:35:19;;;;;;;20.10;10.90;;;;;;;20.16;68.22;99212.19;5031719;28;20061;-80
2023/07/09 05:37:45;;;;;;;14.75;10.25;;;;;;;20.22;68.94;99215.63;5032331;28;20029;-81
2023/07/09 05:40:11;;;;;;;13.27;11.18;;;;;;;20.31;68.68;99217.34;5013966;28;20048;-81
2023/07/09 05:42:36;;;;;;;14.43;10.52;;;;;;;20.44;69.07;99226.56;5030150;28;20486;-81
2023/07/09 05:45:02;;;;;;;13.15;10.45;;;;;;;20.46;69.51;99232.50;5031840;28;20032;-82
2023/07/09 05:47:28;;;;;;;14.23;10.32;;;;;;;20.55;69.94;99231.44;5026954;28;20227;-81
2023/07/09 05:49:53;;;;;;;22.35;10.40;;;;;;;20.68;69.57;99229.84;5029434;28;20029;-80
2023/07/09 05:52:22;;;;;;;11.88;10.18;;;;;;;20.62;69.04;99226.41;5028452;28;20127;-81
2023/07/09 05:54:51;;;;;;;16.50;10.60;;;;;;;20.67;68.79;99229.03;5032192;28;20561;-81
2023/07/09 05:57:18;;;;;;;13.75;9.48;;;;;;;20.80;69.03;99221.97;5037912;28;20472;-82
2023/07/09 05:59:43;;;;;;;14.48;9.95;;;;;;;20.86;68.84;99231.59;5029254;28;20033;-81
2023/07/09 06:02:14;;;;;;;12.40;9.23;;;;;;;21.06;70.01;99241.19;5028899;28;20470;-81
2023/07/09 06:04:39;;;;;;;16.55;10.75;;;;;;;20.85;69.83;99233.53;5013384;28;20498;-80
2023/07/09 06:07:05;;;;;;;12.65;10.18;;;;;;;21.13;70.30;99236.16;5028743;28;20033;-80
2023/07/09 06:09:31;;;;;;;13.48;9.88;;;;;;;21.37;71.01;99242.91;5031106;28;20459;-80
2023/07/09 06:11:57;;;;;;;16.25;9.80;;;;;;;21.49;70.44;99234.19;5030228;28;20112;-80
2023/07/09 06:14:23;;;;;;;11.10;9.60;;;;;;;21.33;71.83;99219.38;5032981;28;20026;-82
2023/07/09 06:16:48;;;;;;;12.80;9.35;;;;;;;21.35;71.52;99222.59;5025242;28;20121;-81
2023/07/09 06:19:14;;;;;;;11.45;8.43;;;;;;;21.57;69.74;99231.53;5030482;28;20136;-80
2023/07/09 06:21:40;;;;;;;12.20;8.40;;;;;;;21.51;69.69;99232.75;5031631;28;20041;-80
2023/07/09 06:24:07;;;;;;;11.63;9.13;;;;;;;21.51;68.65;99230.03;5025752;28;20029;-80
2023/07/09 06:26:32;;;;;;;11.07;7.85;;;;;;;21.57;68.86;99233.44;5030914;28;20033;-80
2023/07/09 06:28:58;;;;;;;21.60;8.77;;;;;;;21.82;67.66;99238.19;5030315;28;20125;-80
2023/07/09 06:31:24;;;;;;;11.63;8.27;;;;;;;22.05;65.99;99237.06;5030886;28;20021;-80
2023/07/09 06:33:50;;;;;;;12.27;8.77;;;;;;;21.87;70.22;99238.09;5028989;28;20057;-81
2023/07/09 06:36:17;;;;;;;14.68;8.57;;;;;;;21.85;68.20;99236.81;5030810;28;20103;-78
2023/07/09 06:38:43;;;;;;;9.77;8.70;;;;;;;21.92;67.67;99240.69;5028812;28;20075;-79
2023/07/09 06:41:08;;;;;;;11.05;8.30;;;;;;;21.90;66.57;99239.41;5030007;28;20044;-79
2023/07/09 06:43:34;;;;;;;13.45;8.15;;;;;;;21.93;65.95;99239.56;5032545;28;20109;-80
2023/07/09 06:46:01;;;;;;;11.82;8.93;;;;;;;22.03;65.75;99244.75;5027373;28;20041;-80
2023/07/09 06:48:28;;;;;;;12.15;8.82;;;;;;;21.98;64.09;99249.50;5032660;28;20120;-80
2023/07/09 06:50:55;;;;;;;9.30;7.68;;;;;;;22.27;63.21;99237.00;5034478;28;20087;-80
2023/07/09 06:53:21;;;;;;;13.05;8.32;;;;;;;22.44;65.02;99249.03;5038667;28;20055;-80
2023/07/09 06:55:48;;;;;;;9.55;8.10;;;;;;;22.56;63.59;99235.63;5043799;28;20028;-80
2023/07/09 06:58:15;;;;;;;13.23;8.73;;;;;;;22.49;64.39;99243.44;5030541;28;20391;-81
2023/07/09 07:00:41;;;;;;;14.30;8.68;;;;;;;22.44;64.38;99235.41;5028958;28;20056;-81
2023/07/09 07:03:07;;;;;;;12.13;8.63;;;;;;;22.77;64.83;99245.63;5029442;28;20045;-81
2023/07/09 07:05:32;;;;;;;12.73;8.60;;;;;;;22.84;63.46;99245.13;5029992;28;20065;-81
2023/07/09 07:07:58;;;;;;;11.20;7.80;;;;;;;22.66;63.44;99244.31;5033160;28;20033;-81
2023/07/09 07:10:24;;;;;;;9.95;7.97;;;;;;;23.03;63.61;99234.72;5033907;28;20099;-83
2023/07/09 07:12:49;;;;;;;10.27;8.02;;;;;;;22.85;63.64;99233.94;5033842;28;20387;-82
2023/07/09 07:15:16;;;;;;;15.32;9.07;;;;;;;22.74;63.59;99234.53;5051404;28;20032;-83
2023/07/09 07:17:43;;;;;;;10.32;8.20;;;;;;;23.13;61.32;99232.47;5035406;28;20032;-82
2023/07/09 07:20:10;;;;;;;9.50;8.38;;;;;;;23.67;59.84;99241.91;5036921;28;20386;-84
2023/07/09 07:22:36;;;;;;;10.60;8.20;;;;;;;23.16;59.75;99231.03;5032141;28;20516;-81
2023/07/09 07:25:03;;;;;;;11.05;8.30;;;;;;;23.05;59.77;99240.66;5030879;28;20614;-82
2023/07/09 07:27:28;;;;;;;11.40;8.18;;;;;;;23.36;60.29;99244.03;5032722;28;20025;-81
2023/07/09 07:29:54;;;;;;;9.60;8.43;;;;;;;23.81;59.02;99231.59;5034101;28;20087;-80
2023/07/09 07:32:20;;;;;;;9.68;8.32;;;;;;;24.08;57.96;99238.59;5031053;28;20041;-78
2023/07/09 07:34:47;;;;;;;10.15;8.38;;;;;;;23.86;60.70;99244.25;5031263;28;20065;-78
2023/07/09 07:37:12;;;;;;;9.63;8.00;;;;;;;23.76;61.60;99244.63;5032671;28;20086;-80
2023/07/09 07:39:38;;;;;;;10.82;7.63;;;;;;;24.07;58.62;99241.66;5031916;28;20112;-79
2023/07/09 07:42:03;;;;;;;10.90;8.18;;;;;;;24.25;59.68;99243.97;5029190;28;20117;-78
2023/07/09 07:44:29;;;;;;;11.20;8.20;;;;;;;24.29;57.41;99239.44;5024200;28;20108;-79
2023/07/09 07:46:54;;;;;;;12.35;8.23;;;;;;;24.18;58.18;99238.22;5031886;28;20478;-79
2023/07/09 07:49:19;;;;;;;12.90;9.10;;;;;;;24.01;59.69;99234.72;5024337;28;20036;-78
2023/07/09 07:51:51;;;;;;;9.45;7.78;;;;;;;24.61;57.07;99235.28;5026550;28;20045;-78
2023/07/09 07:54:19;;;;;;;12.35;8.15;;;;;;;24.58;61.65;99239.44;5029058;28;20037;-78
2023/07/09 07:56:45;;;;;;;11.55;8.95;;;;;;;24.40;59.00;99243.41;5030030;28;20398;-78
2023/07/09 07:59:10;;;;;;;9.13;7.85;;;;;;;24.76;57.71;99229.25;5024700;28;20036;-78
2023/07/09 08:01:36;;;;;;;11.98;8.85;;;;;;;24.69;58.45;99233.59;5033211;28;20579;-78
2023/07/09 08:04:05;;;;;;;10.15;8.85;;;;;;;24.88;59.94;99229.31;5039733;28;20039;-78
2023/07/09 08:06:31;;;;;;;11.07;7.90;;;;;;;24.75;58.23;99230.38;5038949;28;20040;-78
2023/07/09 08:08:57;;;;;;;13.65;9.02;;;;;;;24.74;57.23;99226.03;5032934;28;20038;-78
2023/07/09 08:11:23;;;;;;;10.40;8.10;;;;;;;24.89;58.56;99225.47;5029956;28;20446;-78
2023/07/09 08:13:50;;;;;;;9.43;8.02;;;;;;;24.94;58.43;99221.72;5032494;28;20088;-78
2023/07/09 08:16:15;;;;;;;9.65;8.18;;;;;;;25.00;58.39;99228.59;5033156;28;20033;-78
2023/07/09 08:18:44;;;;;;;11.73;9.23;;;;;;;25.22;58.44;99229.03;5031322;28;20038;-78
2023/07/09 08:21:09;;;;;;;10.90;8.70;;;;;;;25.36;57.28;99222.50;5026958;28;20041;-78
2023/07/09 08:23:35;;;;;;;13.40;8.65;;;;;;;25.09;57.69;99213.72;5025276;28;20517;-78
2023/07/09 08:26:02;;;;;;;8.90;6.32;;;;;;;25.48;56.27;99228.00;5028633;28;20538;-78
2023/07/09 08:28:29;;;;;;;8.15;7.38;;;;;;;25.60;56.09;99217.13;5029008;28;20040;-78
2023/07/09 08:30:54;;;;;;;8.55;7.75;;;;;;;25.96;54.41;99222.66;5030006;28;20037;-78
2023/07/09 08:33:21;;;;;;;12.43;8.50;;;;;;;25.79;59.08;99223.66;5032213;28;20501;-78
2023/07/09 08:35:49;;;;;;;11.25;9.02;;;;;;;25.83;58.20;99210.09;5038129;28;20025;-78
2023/07/09 08:38:15;;;;;;;8.85;7.57;;;;;;;25.90;55.75;99213.06;5026102;28;20033;-78
2023/07/09 08:40:43;;;;;;;9.60;8.57;;;;;;;26.03;58.35;99211.94;5030663;28;20040;-78
2023/07/09 08:43:25;;;;;;;10.07;8.00;;;;;;;26.13;55.43;99216.19;5042737;28;20029;-78
2023/07/09 08:45:57;;;;;;;10.95;9.15;;;;;;;25.98;56.18;99207.50;5026787;28;20029;-78
2023/07/09 08:48:36;;;;;;;16.67;8.35;;;;;;;25.91;56.42;99209.19;5027143;28;20040;-78
2023/07/09 08:51:13;;;;;;;11.68;8.48;;;;;;;26.19;55.23;99204.66;5032293;28;20033;-78
2023/07/09 08:53:59;;;;;;;12.15;8.25;;;;;;;26.14;58.74;99213.13;5033953;28;20032;-78
2023/07/09 08:56:26;;;;;;;9.30;7.88;;;;;;;26.63;54.24;99203.72;5027276;28;20033;-78
2023/07/09 08:58:55;;;;;;;13.65;8.85;;;;;;;26.29;57.31;99198.75;5022253;28;20037;-78
2023/07/09 09:01:35;;;;;;;10.23;8.18;;;;;;;26.26;57.26;99207.63;5021100;28;20116;-78
2023/07/09 09:04:13;;;;;;;10.07;8.40;;;;;;;26.28;56.32;99204.56;5026825;28;20065;-78
2023/07/09 09:06:42;;;;;;;10.13;9.05;;;;;;;26.36;56.72;99204.47;5028051;28;20581;-78
2023/07/09 09:09:29;;;;;;;9.07;7.75;;;;;;;26.66;58.41;99207.72;5031129;28;20041;-78
2023/07/09 09:12:17;;;;;;;8.98;8.07;;;;;;;26.85;56.99;99204.38;5027198;28;20026;-78
2023/07/09 09:14:58;;;;;;;8.52;7.70;;;;;;;27.31;53.35;99195.53;5024391;28;20025;-78
2023/07/09 09:17:26;;;;;;;17.35;8.57;;;;;;;26.99;55.54;99204.81;5028615;28;20037;-79
2023/07/09 09:19:56;;;;;;;9.55;7.97;;;;;;;27.51;53.54;99191.81;5028017;28;20029;-77
2023/07/09 09:22:25;;;;;;;8.98;8.07;;;;;;;27.66;53.32;99193.75;5025551;28;20061;-78
2023/07/09 09:25:04;;;;;;;12.70;8.18;;;;;;;27.59;57.10;99193.56;5027180;28;20363;-79
2023/07/09 09:27:30;;;;;;;11.00;8.82;;;;;;;27.40;56.59;99196.22;5025783;28;20043;-78
2023/07/09 09:29:55;;;;;;;9.27;8.38;;;;;;;27.62;54.00;99192.88;5022779;28;20029;-79
2023/07/09 09:32:29;;;;;;;9.68;8.18;;;;;;;27.53;56.98;99205.97;5022754;28;20496;-78
2023/07/09 09:34:55;;;;;;;9.55;8.00;;;;;;;27.91;53.89;99199.91;5023202;28;20114;-80
2023/07/09 09:37:28;;;;;;;9.85;8.60;;;;;;;27.86;55.89;99200.97;5022888;28;20040;-78
2023/07/09 09:39:54;;;;;;;9.30;7.45;;;;;;;27.99;55.81;99205.25;5028491;28;20390;-77
2023/07/09 09:42:19;;;;;;;9.93;8.48;;;;;;;28.36;53.49;99204.94;5028988;28;20041;-78
2023/07/09 09:44:45;;;;;;;8.40;7.45;;;;;;;28.46;53.13;99201.66;5026912;28;20045;-80
2023/07/09 09:47:12;;;;;;;11.65;9.00;;;;;;;28.55;53.45;99202.25;5028208;28;20037;-79
2023/07/09 09:49:39;;;;;;;11.63;9.13;;;;;;;28.52;54.36;99197.47;5023961;28;20037;-80
2023/07/09 09:52:12;;;;;;;9.23;7.97;;;;;;;28.52;54.22;99195.50;5018337;28;20143;-81
2023/07/09 09:54:40;;;;;;;12.48;9.35;;;;;;;28.18;54.14;99199.81;5033123;28;20442;-80
2023/07/09 09:57:35;;;;;;;11.32;9.70;;;;;;;28.27;54.95;99204.31;5018962;28;20029;-77
2023/07/09 10:00:01;;;;;;;13.32;8.43;;;;;;;28.55;54.03;99202.25;5010814;28;20056;-81
2023/07/09 10:02:26;;;;;;;10.57;8.98;;;;;;;28.36;53.52;99196.69;5020266;28;20383;-81
2023/07/09 10:04:52;;;;;;;15.38;9.32;;;;;;;28.79;54.59;99197.31;5015310;28;20098;-80
2023/07/09 10:07:42;;;;;;;9.07;8.05;;;;;;;29.11;52.17;99202.69;5020874;28;20045;-80
2023/07/09 10:10:22;;;;;;;13.43;8.82;;;;;;;29.02;53.88;99191.91;5026862;28;20071;-83
2023/07/09 10:13:07;;;;;;;12.25;8.50;;;;;;;29.00;52.88;99193.41;5029925;28;20032;-83
2023/07/09 10:15:46;;;;;;;14.07;8.82;;;;;;;29.00;53.77;99190.69;5026463;28;20025;-83
2023/07/09 10:18:11;;;;;;;13.95;8.60;;;;;;;29.08;53.44;99195.94;5031115;28;20049;-83
2023/07/09 10:20:46;;;;;;;12.68;8.57;;;;;;;29.30;52.75;99198.00;5030870;28;20026;-83
2023/07/09 10:23:33;;;;;;;10.67;8.53;;;;;;;29.31;52.85;99202.31;5035207;28;20052;-83
2023/07/09 10:26:25;;;;;;;8.93;7.05;;;;;;;29.62;50.69;99190.31;5034529;28;20281;-83
2023/07/09 10:29:27;;;;;;;9.32;8.05;;;;;;;30.01;50.33;99193.81;5033585;28;20116;-83
2023/07/09 10:32:09;;;;;;;10.02;8.57;;;;;;;29.57;50.46;99191.41;5037810;28;20028;-85
2023/07/09 10:34:48;;;;;;;18.83;9.32;;;;;;;29.64;50.57;99183.31;5032809;28;20022;-82
2023/07/09 10:37:45;;;;;;;16.38;8.55;;;;;;;30.18;49.52;99190.53;5032020;28;20115;-82
2023/07/09 10:40:17;;;;;;;11.25;8.00;;;;;;;30.09;48.09;99181.72;5033149;28;20032;-82
2023/07/09 10:42:46;;;;;;;11.75;8.18;;;;;;;30.13;48.98;99180.63;5030989;28;20104;-82
2023/07/09 10:45:14;;;;;;;14.82;8.02;;;;;;;30.33;49.08;99181.34;5031108;28;20078;-78
2023/07/09 10:47:44;;;;;;;13.82;8.48;;;;;;;30.43;49.52;99179.94;5029508;28;20040;-79
2023/07/09 10:50:18;;;;;;;9.65;7.55;;;;;;;30.51;46.52;99176.09;5030592;28;20029;-82
2023/07/09 10:52:49;;;;;;;10.87;8.10;;;;;;;30.64;48.32;99170.00;5026670;28;20533;-81
2023/07/09 10:55:26;;;;;;;12.07;8.30;;;;;;;31.25;47.66;99171.56;5032017;28;20033;-80
2023/07/09 10:57:58;;;;;;;8.85;7.53;;;;;;;31.27;46.56;99169.19;5029840;28;20049;-80
2023/07/09 11:00:33;;;;;;;11.00;8.77;;;;;;;31.07;47.39;99172.16;5028383;28;20061;-78
2023/07/09 11:03:15;;;;;;;8.00;7.22;;;;;;;31.63;46.34;99171.16;5030167;28;20770;-79
2023/07/09 11:05:42;;;;;;;11.35;7.90;;;;;;;31.44;46.11;99171.38;5025915;28;20473;-82
2023/07/09 11:08:18;;;;;;;15.30;8.98;;;;;;;31.23;47.09;99171.13;5028806;28;20033;-82
2023/07/09 11:10:53;;;;;;;16.40;8.63;;;;;;;31.15;46.68;99173.00;5033247;28;20121;-81
2023/07/09 11:13:26;;;;;;;9.52;7.85;;;;;;;32.00;46.74;99169.16;5025100;28;20835;-82
2023/07/09 11:15:56;;;;;;;11.82;8.10;;;;;;;31.87;46.55;99162.31;5024101;28;20738;-82
2023/07/09 11:18:29;;;;;;;11.20;8.77;;;;;;;31.47;47.27;99165.91;5029649;28;20037;-81
2023/07/09 11:21:00;;;;;;;11.10;8.73;;;;;;;31.69;46.12;99164.91;5028056;28;20722;-82
2023/07/09 11:23:36;;;;;;;15.38;8.98;;;;;;;31.58;46.48;99154.97;5027525;28;20045;-81
2023/07/09 11:26:20;;;;;;;9.30;8.35;;;;;;;31.89;46.88;99162.72;5034204;28;20394;-83
2023/07/09 11:28:51;;;;;;;11.10;8.90;;;;;;;32.03;45.92;99148.28;5029889;28;20463;-80
2023/07/09 11:31:24;;;;;;;13.25;8.48;;;;;;;32.25;46.68;99156.34;5028096;28;20099;-80
2023/07/09 11:34:01;;;;;;;14.20;8.35;;;;;;;32.98;45.53;99152.38;5031076;28;20033;-80